Accueil
METAR-TAF:

METAR-TAF

Aéroports :

Usak, Turquie

latitude: 38-40N, longitude: 029-25E, altitude: 919 m

Observation

Le bulletin a été fait il y a 4 heures et 34 minutes, à 14:50 UTC
Vent 5 kt de ouest/nord-ouest
Température 12°C
Humidité 24%
Pression 1022 hPa
Visibilité 10 km ou plus
pas de nuages en-dessous de 1500 mètres et pas de cumulonimbus.

METAR: LTBO 201450Z 29005KT CAVOK 12/M08 Q1022

Heure: 22:24 (19:24 UTC)

Prévision

Le bulletin a été fait il y a 2 heures et 44 minutes, à 16:40 UTC
Prévision valable du 20 à 18 UTC au 21 à 03 UTC
Vent 2 kt de direction variable
Visibilité 10 km ou plus
pas de nuages en-dessous de 1500 mètres et pas de cumulonimbus.

TAF: LTBO 201640Z 2018/2103 VRB02KT CAVOK

Observations et prévisions météorologiques de plus de 4000 aéroports (messages METAR et TAF).

Les stations disponibles sont représentées par des disques jaunes et rouges sur la carte.

Passer la souris dessus pour voir le nom de la station.

Cliquer dessus pour voir les observations et prévisions météorologiques.

Pour changer de carte: cliquez sur les boutons verts avec une croix noire pour zoomer, sur le bouton vert avec un tiret pour effectuer un zoom arrière, ou sur les flèches vertes pour les cartes adjacentes.


METAR-TAF: